Time;durP1;ratioP1;P1;durP2;ratioP2;P2;SDS_P1;SDS_P2;PMS_P1;PMS_P2;Temp;Humidity;BMP_temperature;BMP_pressure;BME280_temperature;BME280_humidity;BME280_pressure;Samples;Min_cycle;Max_cycle;Signal;HPM_P1;HPM_P2
2022/02/17 00:00:34;;;;;;;;;26.75;23.50;;;;;;;;5048089;28;51211;-53
2022/02/17 00:03:25;;;;;;;;;33.25;26.00;;;;;;;;5046271;28;51108;-52
2022/02/17 00:06:11;;;;;;;;;26.25;22.50;;;;;;;;5047129;28;51246;-50
2022/02/17 00:09:02;;;;;;;;;31.25;26.25;;;;;;;;5050017;28;51404;-54
2022/02/17 00:11:47;;;;;;;;;28.25;24.75;;;;;;;;5046272;28;51143;-55
2022/02/17 00:14:35;;;;;;;;;28.50;23.50;;;;;;;;5045763;28;51179;-52
2022/02/17 00:17:30;;;;;;;;;34.00;28.00;;;;;;;;5045651;28;51323;-50
2022/02/17 00:20:17;;;;;;;;;30.50;26.00;;;;;;;;5046117;28;51060;-53
2022/02/17 00:23:44;;;;;;;;;27.00;24.25;;;;;;;;5035670;28;51132;-52
2022/02/17 00:26:38;;;;;;;;;36.00;28.25;;;;;;;;5048043;28;51294;-54
2022/02/17 00:29:23;;;;;;;;;30.50;22.75;;;;;;;;5044794;28;51156;-53
2022/02/17 00:32:10;;;;;;;;;30.50;25.25;;;;;;;;5048906;28;51173;-53
2022/02/17 00:35:00;;;;;;;;;23.50;22.50;;;;;;;;5043316;28;51209;-55
2022/02/17 00:37:44;;;;;;;;;27.25;25.75;;;;;;;;5048227;28;51534;-49
2022/02/17 00:40:31;;;;;;;;;34.75;29.50;;;;;;;;5043271;28;51512;-54
2022/02/17 00:43:18;;;;;;;;;30.75;27.50;;;;;;;;5042968;28;51068;-53
2022/02/17 00:46:17;;;;;;;;;27.50;22.50;;;;;;;;5043591;28;51132;-52
2022/02/17 00:49:22;;;;;;;;;29.25;26.50;;;;;;;;5048296;28;51096;-54
2022/02/17 00:52:17;;;;;;;;;29.50;25.75;;;;;;;;5048910;28;51194;-53
2022/02/17 00:55:07;;;;;;;;;23.00;21.75;;;;;;;;5046802;28;51114;-54
2022/02/17 00:57:58;;;;;;;;;26.75;24.75;;;;;;;;5045539;28;51165;-55
2022/02/17 01:01:07;;;;;;;;;31.75;29.75;;;;;;;;5048340;28;51506;-52
2022/02/17 01:03:59;;;;;;;;;32.00;26.25;;;;;;;;5053944;28;51225;-53
2022/02/17 01:06:45;;;;;;;;;29.25;27.75;;;;;;;;5043052;28;51127;-54
2022/02/17 01:09:33;;;;;;;;;27.75;23.25;;;;;;;;5047422;28;51149;-53
2022/02/17 01:12:17;;;;;;;;;31.00;27.50;;;;;;;;5046949;28;52758;-55
2022/02/17 01:15:04;;;;;;;;;31.50;24.75;;;;;;;;5046126;28;51571;-52
2022/02/17 01:17:50;;;;;;;;;32.50;20.75;;;;;;;;5043811;28;51111;-52
2022/02/17 01:20:47;;;;;;;;;26.75;24.00;;;;;;;;5042371;28;51237;-51
2022/02/17 01:23:34;;;;;;;;;31.75;26.50;;;;;;;;5045212;28;51112;-51
2022/02/17 01:26:20;;;;;;;;;29.75;26.75;;;;;;;;5040252;28;51214;-54
2022/02/17 01:29:07;;;;;;;;;25.00;25.00;;;;;;;;5044966;28;51564;-53
2022/02/17 01:31:52;;;;;;;;;30.25;26.25;;;;;;;;5043158;28;52573;-51
2022/02/17 01:34:39;;;;;;;;;27.75;23.00;;;;;;;;5045446;28;51191;-55
2022/02/17 01:37:25;;;;;;;;;33.00;25.50;;;;;;;;5047922;28;51182;-54
2022/02/17 01:40:10;;;;;;;;;30.50;23.75;;;;;;;;5046723;28;51158;-53
2022/02/17 01:42:56;;;;;;;;;35.00;25.75;;;;;;;;5044735;28;51688;-53
2022/02/17 01:45:56;;;;;;;;;33.50;27.50;;;;;;;;5046855;28;51021;-55
2022/02/17 01:48:40;;;;;;;;;33.00;26.50;;;;;;;;5042772;28;51186;-53
2022/02/17 01:51:26;;;;;;;;;31.25;24.25;;;;;;;;5044568;28;51230;-52
2022/02/17 01:54:10;;;;;;;;;29.75;25.25;;;;;;;;5044900;28;51562;-52
2022/02/17 01:56:57;;;;;;;;;28.75;24.50;;;;;;;;5045368;28;51145;-54
2022/02/17 01:59:43;;;;;;;;;30.00;23.25;;;;;;;;5045246;28;51280;-54
2022/02/17 02:02:39;;;;;;;;;34.75;24.00;;;;;;;;5046240;28;51324;-53
2022/02/17 02:05:24;;;;;;;;;33.75;27.00;;;;;;;;5043904;28;52157;-53
2022/02/17 02:08:12;;;;;;;;;26.50;23.75;;;;;;;;5046459;28;51211;-53
2022/02/17 02:10:58;;;;;;;;;32.75;26.00;;;;;;;;5046222;28;52523;-53
2022/02/17 02:13:43;;;;;;;;;34.25;28.00;;;;;;;;5051523;28;51129;-55
2022/02/17 02:16:28;;;;;;;;;33.25;26.75;;;;;;;;5041476;28;51148;-52
2022/02/17 02:19:13;;;;;;;;;30.50;26.25;;;;;;;;5041957;28;51118;-52
2022/02/17 02:22:04;;;;;;;;;26.50;24.75;;;;;;;;5045153;28;51170;-52
2022/02/17 02:24:55;;;;;;;;;32.00;26.25;;;;;;;;5042971;28;51115;-55
2022/02/17 02:27:39;;;;;;;;;29.00;26.75;;;;;;;;5043151;28;51535;-55
2022/02/17 02:30:24;;;;;;;;;28.25;26.25;;;;;;;;5043629;28;51172;-52
2022/02/17 02:33:09;;;;;;;;;37.25;26.50;;;;;;;;5048725;28;51618;-51
2022/02/17 02:35:55;;;;;;;;;30.25;24.00;;;;;;;;5047374;28;51125;-54
2022/02/17 02:38:41;;;;;;;;;29.75;26.00;;;;;;;;5052645;28;51154;-56
2022/02/17 02:41:27;;;;;;;;;31.75;28.25;;;;;;;;5052678;28;51068;-50
2022/02/17 02:44:24;;;;;;;;;31.25;25.25;;;;;;;;5045529;28;51202;-53
2022/02/17 02:47:12;;;;;;;;;26.00;21.25;;;;;;;;5047234;28;52012;-52
2022/02/17 02:49:59;;;;;;;;;29.50;27.00;;;;;;;;5041415;28;51150;-55
2022/02/17 02:52:43;;;;;;;;;28.00;24.75;;;;;;;;5042613;28;51206;-52
2022/02/17 02:55:28;;;;;;;;;35.75;27.50;;;;;;;;5044876;28;51367;-54
2022/02/17 02:58:19;;;;;;;;;34.00;25.75;;;;;;;;5041304;28;51746;-50
2022/02/17 03:01:10;;;;;;;;;31.75;26.75;;;;;;;;5048725;28;51171;-54
2022/02/17 03:04:04;;;;;;;;;26.00;22.50;;;;;;;;5045582;28;51286;-53
2022/02/17 03:06:52;;;;;;;;;30.00;24.25;;;;;;;;5050595;28;51116;-53
2022/02/17 03:09:45;;;;;;;;;27.00;24.50;;;;;;;;5042530;28;51559;-54
2022/02/17 03:12:30;;;;;;;;;35.25;27.00;;;;;;;;5045214;28;51091;-55
2022/02/17 03:15:35;;;;;;;;;32.50;25.50;;;;;;;;5046649;28;51614;-54
2022/02/17 03:18:22;;;;;;;;;32.25;28.50;;;;;;;;5046688;28;51260;-50
2022/02/17 03:21:06;;;;;;;;;34.00;27.00;;;;;;;;5048542;28;51134;-53
2022/02/17 03:23:50;;;;;;;;;27.75;25.00;;;;;;;;5049152;28;51142;-49
2022/02/17 03:26:35;;;;;;;;;33.75;27.75;;;;;;;;5048667;28;51225;-55
2022/02/17 03:29:22;;;;;;;;;37.00;27.75;;;;;;;;5046843;28;51150;-55
2022/02/17 03:32:09;;;;;;;;;29.25;25.50;;;;;;;;5048051;28;51083;-53
2022/02/17 03:34:54;;;;;;;;;33.00;26.00;;;;;;;;5047613;28;51653;-52
2022/02/17 03:37:50;;;;;;;;;31.50;28.50;;;;;;;;5047943;28;51150;-52
2022/02/17 03:40:36;;;;;;;;;36.50;27.50;;;;;;;;5047246;28;52528;-55
2022/02/17 03:43:21;;;;;;;;;33.00;28.00;;;;;;;;5047812;28;51508;-51
2022/02/17 03:46:09;;;;;;;;;27.75;26.50;;;;;;;;5050106;28;51148;-54
2022/02/17 03:48:55;;;;;;;;;32.50;29.25;;;;;;;;5047323;28;52292;-55
2022/02/17 03:51:40;;;;;;;;;30.00;25.25;;;;;;;;5049800;28;51238;-54
2022/02/17 03:54:27;;;;;;;;;31.00;25.00;;;;;;;;5046266;28;51348;-56
2022/02/17 03:57:22;;;;;;;;;28.75;26.00;;;;;;;;5046996;28;51151;-55
2022/02/17 04:00:07;;;;;;;;;24.50;17.25;;;;;;;;5042426;28;51617;-51
2022/02/17 04:02:56;;;;;;;;;28.00;24.25;;;;;;;;5045990;28;51139;-55
2022/02/17 04:05:45;;;;;;;;;29.25;25.75;;;;;;;;5049957;28;51214;-55
2022/02/17 04:08:31;;;;;;;;;33.00;25.50;;;;;;;;5053898;28;51472;-56
2022/02/17 04:11:19;;;;;;;;;29.50;27.75;;;;;;;;5048386;28;51103;-55
2022/02/17 04:14:04;;;;;;;;;27.50;27.50;;;;;;;;5058095;28;51336;-53
2022/02/17 04:16:49;;;;;;;;;32.00;28.75;;;;;;;;5034012;28;51111;-54
2022/02/17 04:19:35;;;;;;;;;32.00;26.00;;;;;;;;5031532;28;51217;-55
2022/02/17 04:22:23;;;;;;;;;28.00;24.25;;;;;;;;5027116;28;51212;-54
2022/02/17 04:25:13;;;;;;;;;28.50;26.25;;;;;;;;5023578;28;51641;-54
2022/02/17 04:28:09;;;;;;;;;32.00;27.00;;;;;;;;5024054;28;51085;-52
2022/02/17 04:30:54;;;;;;;;;34.00;28.00;;;;;;;;5026065;28;51167;-56
2022/02/17 04:33:48;;;;;;;;;31.50;29.50;;;;;;;;5025850;28;51590;-53
2022/02/17 04:36:35;;;;;;;;;33.50;28.75;;;;;;;;5036255;28;51142;-54
2022/02/17 04:39:20;;;;;;;;;31.75;29.75;;;;;;;;5023658;28;51160;-55
2022/02/17 04:42:20;;;;;;;;;32.50;27.50;;;;;;;;5026811;28;51222;-55
2022/02/17 04:45:07;;;;;;;;;36.00;30.50;;;;;;;;5026918;28;51272;-52
2022/02/17 04:47:54;;;;;;;;;35.00;31.00;;;;;;;;5019918;28;51117;-54
2022/02/17 04:50:38;;;;;;;;;37.75;31.50;;;;;;;;5020381;28;51136;-55
2022/02/17 04:53:25;;;;;;;;;32.75;29.00;;;;;;;;5024394;28;51222;-53
2022/02/17 04:56:21;;;;;;;;;36.25;30.00;;;;;;;;5030153;28;51126;-53
2022/02/17 04:59:06;;;;;;;;;39.00;31.00;;;;;;;;5021632;28;51038;-52
2022/02/17 05:01:51;;;;;;;;;42.50;32.50;;;;;;;;5026087;28;51284;-55
2022/02/17 05:04:36;;;;;;;;;35.75;30.50;;;;;;;;5025018;28;51032;-54
2022/02/17 05:07:22;;;;;;;;;38.50;28.50;;;;;;;;5025456;28;51130;-54
2022/02/17 05:10:10;;;;;;;;;27.50;25.75;;;;;;;;5024405;28;51550;-51
2022/02/17 05:13:05;;;;;;;;;32.75;29.00;;;;;;;;5030856;28;51126;-53
2022/02/17 05:16:21;;;;;;;;;35.25;28.75;;;;;;;;5029942;28;51159;-53
2022/02/17 05:19:08;;;;;;;;;32.75;28.25;;;;;;;;5044105;28;51140;-55
2022/02/17 05:21:58;;;;;;;;;32.75;29.25;;;;;;;;5043655;28;51179;-53
2022/02/17 05:24:48;;;;;;;;;33.00;27.75;;;;;;;;5043566;28;51081;-50
2022/02/17 05:27:33;;;;;;;;;29.50;24.75;;;;;;;;5043795;28;51221;-52
2022/02/17 05:30:20;;;;;;;;;34.75;30.25;;;;;;;;5048298;28;51287;-55
2022/02/17 05:33:11;;;;;;;;;29.25;25.00;;;;;;;;5044457;28;51148;-55
2022/02/17 05:35:56;;;;;;;;;41.50;31.75;;;;;;;;5047742;28;51417;-54
2022/02/17 05:38:40;;;;;;;;;39.00;32.00;;;;;;;;5042882;28;51085;-55
2022/02/17 05:41:25;;;;;;;;;32.25;27.50;;;;;;;;5049312;28;51525;-52
2022/02/17 05:44:10;;;;;;;;;42.00;32.00;;;;;;;;5042522;28;52656;-51
2022/02/17 05:47:00;;;;;;;;;38.00;28.75;;;;;;;;5040882;28;51129;-54
2022/02/17 05:49:49;;;;;;;;;40.50;31.75;;;;;;;;5046194;28;51174;-53
2022/02/17 05:52:33;;;;;;;;;36.00;29.00;;;;;;;;5045833;28;51220;-53
2022/02/17 05:55:18;;;;;;;;;29.75;28.00;;;;;;;;5042647;28;51567;-53
2022/02/17 05:58:02;;;;;;;;;35.25;30.00;;;;;;;;5043348;28;51132;-56
2022/02/17 06:00:46;;;;;;;;;39.00;27.50;;;;;;;;5051788;28;51531;-51
2022/02/17 06:03:32;;;;;;;;;35.25;29.50;;;;;;;;5049602;28;51262;-56
2022/02/17 06:06:21;;;;;;;;;29.50;26.50;;;;;;;;5035915;28;51726;-52
2022/02/17 06:09:26;;;;;;;;;34.75;31.00;;;;;;;;5041966;28;51087;-54
2022/02/17 06:12:11;;;;;;;;;26.75;23.75;;;;;;;;5040465;28;51113;-56
2022/02/17 06:14:56;;;;;;;;;31.50;26.50;;;;;;;;5039523;28;51037;-54
2022/02/17 06:17:43;;;;;;;;;39.00;30.25;;;;;;;;5046276;28;51544;-47
2022/02/17 06:20:28;;;;;;;;;37.00;28.75;;;;;;;;5038540;28;51697;-45
2022/02/17 06:23:26;;;;;;;;;46.00;34.25;;;;;;;;5041762;28;51119;-48
2022/02/17 06:26:32;;;;;;;;;38.50;30.00;;;;;;;;5038043;28;51061;-48
2022/02/17 06:29:17;;;;;;;;;34.50;29.00;;;;;;;;5043328;28;51166;-45
2022/02/17 06:32:01;;;;;;;;;32.25;29.25;;;;;;;;5038037;28;51679;-48
2022/02/17 06:34:47;;;;;;;;;34.00;28.75;;;;;;;;5038032;28;51093;-47
2022/02/17 06:37:32;;;;;;;;;42.75;33.00;;;;;;;;5038550;28;50991;-49
2022/02/17 06:40:17;;;;;;;;;38.00;29.75;;;;;;;;5059012;28;51154;-44
2022/02/17 06:43:03;;;;;;;;;30.25;23.00;;;;;;;;5051689;28;51461;-47
2022/02/17 06:45:54;;;;;;;;;46.00;33.50;;;;;;;;5061550;28;51643;-47
2022/02/17 06:48:57;;;;;;;;;50.25;39.00;;;;;;;;4998832;28;51286;-46
2022/02/17 06:51:45;;;;;;;;;50.75;39.00;;;;;;;;4998569;28;51190;-48
2022/02/17 06:54:51;;;;;;;;;47.25;35.25;;;;;;;;4998880;28;51169;-47
2022/02/17 06:57:35;;;;;;;;;38.75;32.25;;;;;;;;4976710;28;51506;-43
2022/02/17 07:00:21;;;;;;;;;44.25;34.00;;;;;;;;4978961;28;51224;-45
2022/02/17 07:03:10;;;;;;;;;49.00;36.00;;;;;;;;4975702;28;51246;-46
2022/02/17 07:05:56;;;;;;;;;52.00;40.25;;;;;;;;4979444;28;52007;-47
2022/02/17 07:08:40;;;;;;;;;42.25;31.00;;;;;;;;4979847;28;51229;-45
2022/02/17 07:11:25;;;;;;;;;43.25;33.75;;;;;;;;4980838;28;52925;-46
2022/02/17 07:14:23;;;;;;;;;46.00;37.75;;;;;;;;4978797;28;51121;-43
2022/02/17 07:17:18;;;;;;;;;45.25;37.00;;;;;;;;4975982;28;51120;-48
2022/02/17 07:20:05;;;;;;;;;43.50;33.50;;;;;;;;4975898;28;51189;-48
2022/02/17 07:22:52;;;;;;;;;52.75;36.00;;;;;;;;4974527;28;51132;-48
2022/02/17 07:25:48;;;;;;;;;38.50;30.25;;;;;;;;5020128;28;51164;-50
2022/02/17 07:28:47;;;;;;;;;43.25;33.25;;;;;;;;5047727;28;51188;-44
2022/02/17 07:31:31;;;;;;;;;42.50;31.75;;;;;;;;5056987;28;51635;-47
2022/02/17 07:34:17;;;;;;;;;35.00;29.25;;;;;;;;5052756;28;51228;-48
2022/02/17 07:37:04;;;;;;;;;42.75;33.00;;;;;;;;5046446;28;51361;-46
2022/02/17 07:39:49;;;;;;;;;41.75;32.00;;;;;;;;5046177;28;51949;-42
2022/02/17 07:42:35;;;;;;;;;42.00;28.75;;;;;;;;5042479;28;51497;-46
2022/02/17 07:45:23;;;;;;;;;42.75;32.25;;;;;;;;5045223;28;51200;-43
2022/02/17 07:48:08;;;;;;;;;43.25;32.00;;;;;;;;5048082;28;51617;-46
2022/02/17 07:51:08;;;;;;;;;46.75;37.50;;;;;;;;5047006;28;51258;-43
2022/02/17 07:53:53;;;;;;;;;42.25;33.50;;;;;;;;5042405;28;51170;-47
2022/02/17 07:56:38;;;;;;;;;45.50;34.00;;;;;;;;5022493;28;51437;-46
2022/02/17 07:59:23;;;;;;;;;36.25;30.00;;;;;;;;5042744;28;51559;-45
2022/02/17 08:02:10;;;;;;;;;40.00;31.50;;;;;;;;5050028;28;51193;-46
2022/02/17 08:04:54;;;;;;;;;37.25;29.00;;;;;;;;5055535;28;51222;-49
2022/02/17 08:07:43;;;;;;;;;38.75;29.00;;;;;;;;5055526;28;51333;-45
2022/02/17 08:10:28;;;;;;;;;31.00;28.50;;;;;;;;5055809;28;51155;-46
2022/02/17 08:13:34;;;;;;;;;31.75;27.25;;;;;;;;5039528;28;51606;-47
2022/02/17 08:16:18;;;;;;;;;35.25;29.75;;;;;;;;5060278;28;51280;-50
2022/02/17 08:19:04;;;;;;;;;37.50;29.75;;;;;;;;5060929;28;51146;-44
2022/02/17 08:21:49;;;;;;;;;31.75;28.25;;;;;;;;5060454;28;51182;-47
2022/02/17 08:24:34;;;;;;;;;42.75;32.75;;;;;;;;5044338;28;51253;-49
2022/02/17 08:27:21;;;;;;;;;28.25;27.00;;;;;;;;5038723;28;51170;-45
2022/02/17 08:30:06;;;;;;;;;25.00;22.25;;;;;;;;5050763;28;51143;-48
2022/02/17 08:32:54;;;;;;;;;30.50;24.50;;;;;;;;5045536;28;51116;-42
2022/02/17 08:35:41;;;;;;;;;29.50;27.50;;;;;;;;5051716;28;51034;-51
2022/02/17 08:38:31;;;;;;;;;32.00;25.75;;;;;;;;5052680;28;51076;-49
2022/02/17 08:41:41;;;;;;;;;25.75;24.25;;;;;;;;5040077;28;51154;-50
2022/02/17 08:44:30;;;;;;;;;31.25;26.50;;;;;;;;5040740;28;51124;-49
2022/02/17 08:47:17;;;;;;;;;39.00;31.75;;;;;;;;5039852;28;51518;-50
2022/02/17 08:50:13;;;;;;;;;36.75;29.50;;;;;;;;5040964;28;51269;-51
2022/02/17 08:53:08;;;;;;;;;34.75;26.75;;;;;;;;5056027;28;51207;-48
2022/02/17 08:56:02;;;;;;;;;28.75;25.50;;;;;;;;5043050;28;51155;-54
2022/02/17 08:58:50;;;;;;;;;32.25;26.25;;;;;;;;5040746;28;51352;-46
2022/02/17 09:01:42;;;;;;;;;35.25;27.25;;;;;;;;5047184;28;51359;-51
2022/02/17 09:04:38;;;;;;;;;39.75;27.00;;;;;;;;5037106;28;51877;-52
2022/02/17 09:07:23;;;;;;;;;30.00;22.50;;;;;;;;5048136;28;51435;-51
2022/02/17 09:10:10;;;;;;;;;31.75;24.00;;;;;;;;5046081;28;51286;-46
2022/02/17 09:12:58;;;;;;;;;25.50;21.00;;;;;;;;5039530;28;51091;-51
2022/02/17 09:15:45;;;;;;;;;29.50;23.75;;;;;;;;5039458;28;51393;-48
2022/02/17 09:18:31;;;;;;;;;28.25;25.50;;;;;;;;5041237;28;51052;-48
2022/02/17 09:21:16;;;;;;;;;31.00;24.50;;;;;;;;5040064;28;51096;-50
2022/02/17 09:24:06;;;;;;;;;30.00;25.00;;;;;;;;5039210;28;51180;-47
2022/02/17 09:26:53;;;;;;;;;28.50;25.75;;;;;;;;5038528;28;51088;-48
2022/02/17 09:29:40;;;;;;;;;24.75;21.50;;;;;;;;5043494;28;51527;-52
2022/02/17 09:32:41;;;;;;;;;29.25;26.75;;;;;;;;5043139;28;51080;-46
2022/02/17 09:35:26;;;;;;;;;36.50;28.50;;;;;;;;5044433;28;51107;-46
2022/02/17 09:38:13;;;;;;;;;28.25;24.50;;;;;;;;5038760;28;51544;-50
2022/02/17 09:40:59;;;;;;;;;33.00;26.75;;;;;;;;5040018;28;51357;-48
2022/02/17 09:43:55;;;;;;;;;31.50;25.75;;;;;;;;5054918;28;51108;-45
2022/02/17 09:46:45;;;;;;;;;33.75;24.25;;;;;;;;5039303;28;51227;-44
2022/02/17 09:49:31;;;;;;;;;28.00;25.25;;;;;;;;5038556;28;51400;-52
2022/02/17 09:52:16;;;;;;;;;32.00;26.00;;;;;;;;5038306;28;51154;-45
2022/02/17 09:55:12;;;;;;;;;31.75;25.00;;;;;;;;5040677;28;51471;-44
2022/02/17 09:57:56;;;;;;;;;26.75;24.50;;;;;;;;5039573;28;51139;-44
2022/02/17 10:00:41;;;;;;;;;27.00;23.50;;;;;;;;5038642;28;51040;-46
2022/02/17 10:03:36;;;;;;;;;34.50;29.25;;;;;;;;5040547;28;51559;-45
2022/02/17 10:06:24;;;;;;;;;29.50;25.25;;;;;;;;5050347;28;51560;-50
2022/02/17 10:09:13;;;;;;;;;35.75;27.00;;;;;;;;5037806;28;51259;-53
2022/02/17 10:11:59;;;;;;;;;31.50;25.25;;;;;;;;5040647;28;51266;-47
2022/02/17 10:14:45;;;;;;;;;32.25;24.75;;;;;;;;5037127;28;51132;-46
2022/02/17 10:17:31;;;;;;;;;32.50;24.25;;;;;;;;5038643;28;51226;-51
2022/02/17 10:20:20;;;;;;;;;28.75;22.75;;;;;;;;5039686;28;51100;-47
2022/02/17 10:23:09;;;;;;;;;25.50;25.00;;;;;;;;5045256;28;51252;-49
2022/02/17 10:26:02;;;;;;;;;28.50;21.75;;;;;;;;5047239;28;51144;-49
2022/02/17 10:28:57;;;;;;;;;31.00;27.50;;;;;;;;5038463;28;51349;-48
2022/02/17 10:31:44;;;;;;;;;26.75;23.00;;;;;;;;5037237;28;51083;-47
2022/02/17 10:34:31;;;;;;;;;35.00;24.25;;;;;;;;5037464;28;51096;-50
2022/02/17 10:37:56;;;;;;;;;27.75;23.75;;;;;;;;5039252;28;51169;-46
2022/02/17 10:40:49;;;;;;;;;29.75;24.75;;;;;;;;5038508;28;51341;-45
2022/02/17 10:43:40;;;;;;;;;27.75;21.50;;;;;;;;5018967;28;51093;-45
2022/02/17 10:46:34;;;;;;;;;25.25;22.50;;;;;;;;5036527;28;51452;-45
2022/02/17 10:49:19;;;;;;;;;36.75;26.00;;;;;;;;5045991;28;51128;-45
2022/02/17 10:52:05;;;;;;;;;27.50;22.75;;;;;;;;5029430;28;51179;-45
2022/02/17 10:55:08;;;;;;;;;31.50;24.00;;;;;;;;5041037;28;51582;-48
2022/02/17 10:57:56;;;;;;;;;29.75;26.50;;;;;;;;5040783;28;51673;-46
2022/02/17 11:00:41;;;;;;;;;34.50;28.25;;;;;;;;5057790;28;51190;-46
2022/02/17 11:03:33;;;;;;;;;31.00;25.25;;;;;;;;5057866;28;51127;-48
2022/02/17 11:06:29;;;;;;;;;26.75;24.00;;;;;;;;5042014;28;51499;-46
2022/02/17 11:09:20;;;;;;;;;29.50;24.50;;;;;;;;5038772;28;51108;-46
2022/02/17 11:12:05;;;;;;;;;26.75;22.25;;;;;;;;5042918;28;51596;-48
2022/02/17 11:15:05;;;;;;;;;26.00;24.50;;;;;;;;5038056;28;51208;-47
2022/02/17 11:18:03;;;;;;;;;28.25;25.75;;;;;;;;5022761;28;50949;-46
2022/02/17 11:20:49;;;;;;;;;31.50;23.50;;;;;;;;5025038;28;51227;-45
2022/02/17 11:23:39;;;;;;;;;28.00;24.50;;;;;;;;5057381;28;51567;-48
2022/02/17 11:26:28;;;;;;;;;28.75;23.50;;;;;;;;5041377;28;51122;-44
2022/02/17 11:29:33;;;;;;;;;25.25;24.25;;;;;;;;5041012;28;51132;-47
2022/02/17 11:32:19;;;;;;;;;27.00;23.75;;;;;;;;5040638;28;51180;-46
2022/02/17 11:35:08;;;;;;;;;28.25;21.50;;;;;;;;5040814;28;51129;-47
2022/02/17 11:38:37;;;;;;;;;30.50;25.00;;;;;;;;5046231;28;51528;-52
2022/02/17 11:41:23;;;;;;;;;27.75;23.75;;;;;;;;5048025;28;51242;-46
2022/02/17 11:44:13;;;;;;;;;25.75;22.75;;;;;;;;5056599;28;51115;-45
2022/02/17 11:47:05;;;;;;;;;28.00;22.00;;;;;;;;5057283;28;51064;-44
2022/02/17 11:49:55;;;;;;;;;30.00;24.25;;;;;;;;5042732;28;51159;-49
2022/02/17 11:52:39;;;;;;;;;28.25;23.25;;;;;;;;5043455;28;51513;-49
2022/02/17 11:55:27;;;;;;;;;29.00;22.50;;;;;;;;5061241;28;51154;-48
2022/02/17 11:58:31;;;;;;;;;24.00;20.00;;;;;;;;5060816;28;51621;-49
2022/02/17 12:01:21;;;;;;;;;31.50;22.50;;;;;;;;5041256;28;51697;-48
2022/02/17 12:04:38;;;;;;;;;29.50;22.50;;;;;;;;5039278;28;51554;-46
2022/02/17 12:07:36;;;;;;;;;22.25;19.75;;;;;;;;5040462;28;51167;-48
2022/02/17 12:10:28;;;;;;;;;29.00;21.50;;;;;;;;5041077;28;51131;-44
2022/02/17 12:13:25;;;;;;;;;21.50;19.75;;;;;;;;5040790;28;51333;-44
2022/02/17 12:16:35;;;;;;;;;26.25;24.25;;;;;;;;5040187;28;51306;-46
2022/02/17 12:19:27;;;;;;;;;29.25;25.00;;;;;;;;5040631;28;51139;-48
2022/02/17 12:22:15;;;;;;;;;28.50;25.00;;;;;;;;5043169;28;51127;-47
2022/02/17 12:25:22;;;;;;;;;24.75;21.75;;;;;;;;5040275;28;51445;-47
2022/02/17 12:28:18;;;;;;;;;25.75;22.75;;;;;;;;5059729;28;51547;-47
2022/02/17 12:31:04;;;;;;;;;29.00;25.00;;;;;;;;5043445;28;51238;-47
2022/02/17 12:34:01;;;;;;;;;30.50;25.00;;;;;;;;5057512;28;51221;-47
2022/02/17 12:36:48;;;;;;;;;27.25;22.75;;;;;;;;5060116;28;51127;-46
2022/02/17 12:39:33;;;;;;;;;30.00;23.25;;;;;;;;5060083;28;51549;-42
2022/02/17 12:42:25;;;;;;;;;26.00;19.50;;;;;;;;5056108;28;51583;-45
2022/02/17 12:45:11;;;;;;;;;26.25;22.50;;;;;;;;5059236;28;50961;-44
2022/02/17 12:47:56;;;;;;;;;27.50;21.50;;;;;;;;5054743;28;51329;-46
2022/02/17 12:50:43;;;;;;;;;29.50;23.00;;;;;;;;5044660;28;51160;-46
2022/02/17 12:53:43;;;;;;;;;29.75;23.25;;;;;;;;5038422;28;51085;-46
2022/02/17 12:56:32;;;;;;;;;25.00;22.00;;;;;;;;5038731;28;51169;-44
2022/02/17 12:59:17;;;;;;;;;28.50;22.00;;;;;;;;5039408;28;52047;-44
2022/02/17 13:02:04;;;;;;;;;29.00;22.25;;;;;;;;5048202;28;51259;-45
2022/02/17 13:05:10;;;;;;;;;26.75;23.75;;;;;;;;5040030;28;51077;-47
2022/02/17 13:07:56;;;;;;;;;25.50;23.25;;;;;;;;5038975;28;51122;-43
2022/02/17 13:10:41;;;;;;;;;25.25;21.25;;;;;;;;5044380;28;51041;-47
2022/02/17 13:13:26;;;;;;;;;25.25;20.50;;;;;;;;5038766;28;51364;-46
2022/02/17 13:16:15;;;;;;;;;27.50;22.00;;;;;;;;5057521;28;51282;-46
2022/02/17 13:19:01;;;;;;;;;23.25;21.25;;;;;;;;5043338;28;51227;-44
2022/02/17 13:22:25;;;;;;;;;25.75;21.25;;;;;;;;5045241;28;51087;-46
2022/02/17 13:25:10;;;;;;;;;28.25;23.00;;;;;;;;4994612;28;51163;-43
2022/02/17 13:27:57;;;;;;;;;26.50;22.00;;;;;;;;4993159;28;51097;-46
2022/02/17 13:30:53;;;;;;;;;24.25;21.50;;;;;;;;5033653;28;51454;-47
2022/02/17 13:33:49;;;;;;;;;25.50;20.00;;;;;;;;5037052;28;51211;-46
2022/02/17 13:36:47;;;;;;;;;22.50;19.50;;;;;;;;5041822;28;51184;-48
2022/02/17 13:39:33;;;;;;;;;27.00;23.75;;;;;;;;5031589;28;51207;-46
2022/02/17 13:42:20;;;;;;;;;27.75;23.00;;;;;;;;5038689;28;51357;-46
2022/02/17 13:45:21;;;;;;;;;22.50;20.00;;;;;;;;5043551;28;52232;-48
2022/02/17 13:48:07;;;;;;;;;32.75;23.50;;;;;;;;5040288;28;52019;-46
2022/02/17 13:50:58;;;;;;;;;25.75;20.50;;;;;;;;5049668;28;51218;-46
2022/02/17 13:53:46;;;;;;;;;27.25;22.00;;;;;;;;5045352;28;52129;-43
2022/02/17 13:56:32;;;;;;;;;27.25;21.75;;;;;;;;5034946;28;51230;-45
2022/02/17 13:59:38;;;;;;;;;31.25;24.50;;;;;;;;5037218;28;51194;-46
2022/02/17 14:02:30;;;;;;;;;28.75;22.25;;;;;;;;5036134;28;51288;-46
2022/02/17 14:05:20;;;;;;;;;24.25;22.00;;;;;;;;5049119;28;51104;-48
2022/02/17 14:08:15;;;;;;;;;29.75;24.25;;;;;;;;5042468;28;51430;-46
2022/02/17 14:11:00;;;;;;;;;28.75;23.25;;;;;;;;5040734;28;51162;-48
2022/02/17 14:13:45;;;;;;;;;32.00;23.50;;;;;;;;5052888;28;51646;-44
2022/02/17 14:16:30;;;;;;;;;28.00;24.00;;;;;;;;5053417;28;51073;-49
2022/02/17 14:19:14;;;;;;;;;25.00;22.50;;;;;;;;5039236;28;51172;-47
2022/02/17 14:21:59;;;;;;;;;25.50;21.00;;;;;;;;5039007;28;51980;-45
2022/02/17 14:24:45;;;;;;;;;22.75;19.75;;;;;;;;5028366;28;51751;-48
2022/02/17 14:27:30;;;;;;;;;27.00;20.25;;;;;;;;5041105;28;51190;-46
2022/02/17 14:30:28;;;;;;;;;34.25;22.75;;;;;;;;5037727;28;51136;-49
2022/02/17 14:33:13;;;;;;;;;25.50;23.00;;;;;;;;5039950;28;51153;-48
2022/02/17 14:35:58;;;;;;;;;25.25;23.75;;;;;;;;5033274;28;51138;-47
2022/02/17 14:38:42;;;;;;;;;24.75;23.00;;;;;;;;5050414;28;51517;-45
2022/02/17 14:41:29;;;;;;;;;29.00;24.25;;;;;;;;5049751;28;51219;-44
2022/02/17 14:44:14;;;;;;;;;25.75;23.25;;;;;;;;5048383;28;51438;-45
2022/02/17 14:47:01;;;;;;;;;26.00;22.75;;;;;;;;5052052;28;51139;-48
2022/02/17 14:49:49;;;;;;;;;26.50;23.00;;;;;;;;5046357;28;51230;-47
2022/02/17 14:52:34;;;;;;;;;29.00;24.75;;;;;;;;5048297;28;51071;-46
2022/02/17 14:55:19;;;;;;;;;21.75;21.75;;;;;;;;5049845;28;51023;-45
2022/02/17 14:58:05;;;;;;;;;23.75;22.00;;;;;;;;5044830;28;51468;-45
2022/02/17 15:00:51;;;;;;;;;26.00;23.25;;;;;;;;5026425;28;51168;-45
2022/02/17 15:03:58;;;;;;;;;24.00;21.00;;;;;;;;5060508;28;51476;-47
2022/02/17 15:06:43;;;;;;;;;25.75;23.75;;;;;;;;5045787;28;51109;-44
2022/02/17 15:09:27;;;;;;;;;31.25;22.75;;;;;;;;5040089;28;51096;-43
2022/02/17 15:12:15;;;;;;;;;27.25;23.50;;;;;;;;5040659;28;51215;-45
2022/02/17 15:14:59;;;;;;;;;22.75;20.00;;;;;;;;5041729;28;51595;-46
2022/02/17 15:17:43;;;;;;;;;24.25;22.00;;;;;;;;5059929;28;51210;-46
2022/02/17 15:20:34;;;;;;;;;22.75;22.50;;;;;;;;5049269;28;51131;-45
2022/02/17 15:23:21;;;;;;;;;23.75;21.50;;;;;;;;5040627;28;51542;-44
2022/02/17 15:26:17;;;;;;;;;27.50;21.50;;;;;;;;5039921;28;51157;-49
2022/02/17 15:29:05;;;;;;;;;28.00;23.75;;;;;;;;5040264;28;51171;-43
2022/02/17 15:31:50;;;;;;;;;29.50;21.75;;;;;;;;5041376;28;51010;-47
2022/02/17 15:34:48;;;;;;;;;30.00;26.00;;;;;;;;5041022;28;51082;-49
2022/02/17 15:37:35;;;;;;;;;27.75;23.75;;;;;;;;5045473;28;51112;-48
2022/02/17 15:40:21;;;;;;;;;30.00;23.00;;;;;;;;5051669;28;51120;-44
2022/02/17 15:43:07;;;;;;;;;25.25;16.00;;;;;;;;5049650;28;51161;-45
2022/02/17 15:45:53;;;;;;;;;33.25;25.75;;;;;;;;5060570;28;51178;-46
2022/02/17 15:48:38;;;;;;;;;28.75;24.00;;;;;;;;5038926;28;51117;-45
2022/02/17 15:51:24;;;;;;;;;26.50;22.50;;;;;;;;5038923;28;51262;-46
2022/02/17 15:54:09;;;;;;;;;25.75;21.00;;;;;;;;5039354;28;51212;-45
2022/02/17 15:56:54;;;;;;;;;28.50;24.50;;;;;;;;5038770;28;51371;-50
2022/02/17 15:59:49;;;;;;;;;32.75;25.50;;;;;;;;5038933;28;51138;-45
2022/02/17 16:02:39;;;;;;;;;30.00;22.00;;;;;;;;5040289;28;51115;-50
2022/02/17 16:05:25;;;;;;;;;29.00;22.50;;;;;;;;5040213;28;51565;-47
2022/02/17 16:08:24;;;;;;;;;26.50;23.25;;;;;;;;5024745;28;51110;-50
2022/02/17 16:11:39;;;;;;;;;27.00;24.50;;;;;;;;5040362;28;51155;-46
2022/02/17 16:14:30;;;;;;;;;32.25;24.00;;;;;;;;5040365;28;51006;-47
2022/02/17 16:17:26;;;;;;;;;30.00;25.25;;;;;;;;5038571;28;51181;-45
2022/02/17 16:20:11;;;;;;;;;26.50;23.00;;;;;;;;5039963;28;51779;-47
2022/02/17 16:22:56;;;;;;;;;30.25;26.25;;;;;;;;5049737;28;51349;-47
2022/02/17 16:25:40;;;;;;;;;35.25;28.25;;;;;;;;5050656;28;51235;-47